KDGW/DGW METAR and TAF weather

Enter ICAO airport designator
Station Type Date Time Source
KDGW METAR 2019/02/23 22:53 UTC NOAA

KDGW 232253Z AUTO 29016KT 10SM FEW120 M01/M12 A2993 RMK AO2 SLP195 T10111122


Station Type Date Time Source
KDGW Decoded METAR 2019/02/23 22:53 UTC NOAA

DOUGLAS CONVERSE COUNTY, WY, United States (KDGW) 42-48N 105-23W 1499M
Feb 23, 2019 - 05:53 PM EST / 2019.02.23 2253 UTC
Wind: from the WNW (290 degrees) at 18 MPH (16 KT):0
Visibility: 10 mile(s):0
Sky conditions: mostly clear
Temperature: 30.0 F (-1.1 C)
Windchill: 17 F (-8 C):1
Dew Point: 10.0 F (-12.2 C)
Relative Humidity: 42%
Pressure (altimeter): 29.93 in. Hg (1013 hPa)
ob: KDGW 232253Z AUTO 29016KT 10SM FEW120 M01/M12 A2993 RMK AO2 SLP195 T10111122
cycle: 23

Station Type Date Time Source
KDGW TAF UTC NOAA

Error!


Example: see airport list